createdAt,value
2018-07-05T00:01:53.730Z,100955.56
2018-07-05T00:05:09.132Z,100965.16
2018-07-05T00:08:30.590Z,100969.98
2018-07-05T00:11:52.244Z,100967.38
2018-07-05T00:15:13.658Z,100969.09
2018-07-05T00:18:35.124Z,100968.22
2018-07-05T00:21:56.615Z,100968.67
2018-07-05T00:25:18.004Z,100976.54
2018-07-05T00:28:40.577Z,100976.98
2018-07-05T00:32:02.033Z,100975.67
2018-07-05T00:35:23.466Z,100978.75
2018-07-05T00:38:44.764Z,100974.81
2018-07-05T00:42:00.154Z,100970.44
2018-07-05T00:45:21.673Z,100963.89
2018-07-05T00:48:43.068Z,100965.22
2018-07-05T00:52:04.686Z,100971.35
2018-07-05T00:55:26.148Z,100969.61
2018-07-05T00:58:47.375Z,100970.46
2018-07-05T01:02:08.885Z,100956.47
2018-07-05T01:05:30.228Z,100959.98
2018-07-05T01:08:51.704Z,100961.31
2018-07-05T01:12:13.115Z,100960.86
2018-07-05T01:15:34.673Z,100962.62
2018-07-05T01:18:56.004Z,100955.18
2018-07-05T01:22:17.689Z,100960.02
2018-07-05T01:25:38.965Z,100951.27
2018-07-05T01:29:00.433Z,100951.27
2018-07-05T01:32:15.809Z,100952.13
2018-07-05T01:35:37.868Z,100950.83
2018-07-05T01:38:59.296Z,100954.30
2018-07-05T01:42:21.047Z,100952.98
2018-07-05T01:45:42.557Z,100957.83
2018-07-05T01:49:03.892Z,100943.42
2018-07-05T01:52:19.359Z,100949.98
2018-07-05T01:55:40.825Z,100952.59
2018-07-05T01:59:02.181Z,100948.20
2018-07-05T02:02:23.615Z,100941.23
2018-07-05T02:05:45.064Z,100941.22
2018-07-05T02:09:06.519Z,100945.16
2018-07-05T02:12:27.955Z,100945.16
2018-07-05T02:15:49.477Z,100940.80
2018-07-05T02:19:11.236Z,100939.06
2018-07-05T02:22:32.525Z,100947.80
2018-07-05T02:25:54.017Z,100939.05
2018-07-05T02:29:15.474Z,100940.38
2018-07-05T02:32:37.011Z,100948.25
2018-07-05T02:35:58.564Z,100947.80
2018-07-05T02:39:25.081Z,100956.11
2018-07-05T02:42:46.560Z,100956.11
2018-07-05T02:46:08.096Z,100956.95
2018-07-05T02:49:29.552Z,100960.45
2018-07-05T02:52:51.297Z,100953.92
2018-07-05T02:56:12.572Z,100949.55
2018-07-05T02:59:34.056Z,100950.45
2018-07-05T03:02:55.420Z,100954.79
2018-07-05T03:06:17.025Z,100948.23
2018-07-05T03:09:38.609Z,100944.30
2018-07-05T03:13:00.057Z,100940.82
2018-07-05T03:16:21.701Z,100947.80
2018-07-05T03:19:43.082Z,100939.05
2018-07-05T03:23:04.697Z,100940.83
2018-07-05T03:26:26.336Z,100939.96
2018-07-05T03:29:47.849Z,100945.63
2018-07-05T03:33:03.114Z,100947.81
2018-07-05T03:36:24.453Z,100950.42
2018-07-05T03:39:45.896Z,100958.28
2018-07-05T03:43:07.492Z,100954.79
2018-07-05T03:46:29.036Z,100946.51
2018-07-05T03:49:50.438Z,100949.57
2018-07-05T03:53:12.096Z,100953.88
2018-07-05T03:56:33.354Z,100946.48
2018-07-05T03:59:48.828Z,100954.75
2018-07-05T04:03:10.127Z,100946.90
2018-07-05T04:06:31.510Z,100941.23
2018-07-05T04:09:52.826Z,100947.31
2018-07-05T04:13:14.326Z,100942.95
2018-07-05T04:16:35.815Z,100933.78
2018-07-05T04:19:57.231Z,100934.23
2018-07-05T04:23:18.686Z,100929.42
2018-07-05T04:26:40.014Z,100919.39
2018-07-05T04:30:01.416Z,100929.00
2018-07-05T04:33:22.805Z,100924.66
2018-07-05T04:36:44.161Z,100928.18
2018-07-05T04:40:05.488Z,100925.11
2018-07-05T04:43:20.960Z,100924.25
2018-07-05T04:46:42.481Z,100925.55
2018-07-05T04:50:03.889Z,100920.73
2018-07-05T04:53:25.115Z,100919.86
2018-07-05T04:56:46.541Z,100920.30
2018-07-05T05:00:07.857Z,100916.38
2018-07-05T05:03:29.206Z,100912.00
2018-07-05T05:06:50.564Z,100911.58
2018-07-05T05:10:12.035Z,100915.03
2018-07-05T05:13:33.649Z,100912.41
2018-07-05T05:16:55.246Z,100915.04
2018-07-05T05:20:16.769Z,100914.60
2018-07-05T05:23:38.305Z,100911.98
2018-07-05T05:26:59.865Z,100915.03
2018-07-05T05:30:21.279Z,100916.33
2018-07-05T05:33:42.742Z,100921.58
2018-07-05T05:37:04.264Z,100925.05
2018-07-05T05:40:25.598Z,100914.14
2018-07-05T05:43:46.985Z,100912.88
2018-07-05T05:47:08.552Z,100915.52
2018-07-05T05:50:30.125Z,100917.27
2018-07-05T05:53:51.712Z,100921.61
2018-07-05T05:57:13.219Z,100921.16
2018-07-05T06:00:34.698Z,100919.86
2018-07-05T06:03:56.785Z,100917.68
2018-07-05T06:07:18.171Z,100920.27
2018-07-05T06:10:39.477Z,100917.19
2018-07-05T06:14:00.888Z,100911.08
2018-07-05T06:17:22.336Z,100910.63
2018-07-05T06:20:43.631Z,100923.75
2018-07-05T06:24:04.849Z,100914.58
2018-07-05T06:27:26.242Z,100911.09
2018-07-05T06:30:47.886Z,100913.30
2018-07-05T06:34:09.267Z,100905.89
2018-07-05T06:37:31.670Z,100917.64
2018-07-05T06:40:53.137Z,100923.36
2018-07-05T06:44:14.654Z,100923.78
2018-07-05T06:47:36.324Z,100918.11
2018-07-05T06:50:57.694Z,100917.65
2018-07-05T06:54:19.118Z,100916.30
2018-07-05T06:57:40.665Z,100914.09
2018-07-05T07:01:02.107Z,100908.31
2018-07-05T07:04:23.480Z,100910.44
2018-07-05T07:07:44.925Z,100907.31
2018-07-05T07:11:06.380Z,100910.38
2018-07-05T07:14:27.811Z,100928.73
2018-07-05T07:17:43.200Z,100928.81
2018-07-05T07:21:04.465Z,100930.12
2018-07-05T07:24:25.797Z,100931.95
2018-07-05T07:27:47.323Z,100930.20
2018-07-05T07:31:08.778Z,100931.96
2018-07-05T07:34:30.288Z,100935.83
2018-07-05T07:37:51.816Z,100924.81
2018-07-05T07:41:13.097Z,100928.55
2018-07-05T07:44:16.918Z,100930.65
2018-07-05T07:47:19.677Z,100932.91
2018-07-05T07:50:22.433Z,100945.76
2018-07-05T07:53:25.200Z,100943.22
2018-07-05T07:56:27.994Z,100943.25
2018-07-05T07:59:30.755Z,100952.05
2018-07-05T08:02:33.509Z,100951.62
2018-07-05T08:05:36.286Z,100945.06
2018-07-05T08:08:39.035Z,100938.48
2018-07-05T08:11:41.827Z,100943.24
2018-07-05T08:14:44.640Z,100941.83
2018-07-05T08:17:47.382Z,100940.36
2018-07-05T08:20:50.472Z,100943.67
2018-07-05T08:23:53.205Z,100941.76
2018-07-05T08:26:55.975Z,100945.25
2018-07-05T08:29:58.727Z,100951.72
2018-07-05T08:33:01.465Z,100949.26
2018-07-05T08:36:04.293Z,100947.47
2018-07-05T08:39:07.210Z,100955.47
2018-07-05T08:42:09.953Z,100955.52
2018-07-05T08:45:12.715Z,100958.78
2018-07-05T08:48:15.499Z,100963.24
2018-07-05T08:51:18.248Z,100965.05
2018-07-05T08:54:21.003Z,100971.58
2018-07-05T08:57:23.737Z,100967.52
2018-07-05T09:00:26.490Z,100968.24
2018-07-05T09:03:29.265Z,100967.53
2018-07-05T09:06:32.105Z,100963.79
2018-07-05T09:09:34.823Z,100955.63
2018-07-05T09:12:37.583Z,100952.86
2018-07-05T09:15:40.308Z,100956.53
2018-07-05T09:18:43.073Z,100960.82
2018-07-05T09:21:45.882Z,100949.64
2018-07-05T09:24:48.610Z,100953.31
2018-07-05T09:27:51.437Z,100951.64
2018-07-05T09:30:54.312Z,100956.36
2018-07-05T09:33:57.062Z,100952.03
2018-07-05T09:36:59.859Z,100959.37
2018-07-05T09:40:02.600Z,100955.80
2018-07-05T09:43:05.341Z,100963.65
2018-07-05T09:46:08.344Z,100961.89
2018-07-05T09:49:11.165Z,100962.00
2018-07-05T09:52:13.927Z,100966.38
2018-07-05T09:55:16.655Z,100958.19
2018-07-05T09:58:19.427Z,100959.36
2018-07-05T10:01:22.148Z,100959.98
2018-07-05T10:04:24.940Z,100973.90
2018-07-05T10:07:27.680Z,100960.51
2018-07-05T10:10:30.424Z,100966.22
2018-07-05T10:13:33.334Z,100964.84
2018-07-05T10:16:35.945Z,100966.84
2018-07-05T10:19:38.708Z,100954.55
2018-07-05T10:22:41.437Z,100962.85
2018-07-05T10:25:44.204Z,100957.67
2018-07-05T10:29:05.611Z,100963.07
2018-07-05T10:32:26.975Z,100956.46
2018-07-05T10:35:29.844Z,100961.83
2018-07-05T10:38:32.614Z,100951.91
2018-07-05T10:41:54.003Z,100957.72
2018-07-05T10:45:16.485Z,100962.25
2018-07-05T10:48:38.107Z,100969.98
2018-07-05T10:51:59.577Z,100964.66
2018-07-05T10:55:21.415Z,100957.43
2018-07-05T10:58:42.548Z,100957.71
2018-07-05T11:02:04.007Z,100958.91
2018-07-05T11:05:25.280Z,100959.27
2018-07-05T11:08:46.670Z,100962.03
2018-07-05T11:12:08.089Z,100958.81
2018-07-05T11:15:23.526Z,100963.77
2018-07-05T11:18:44.998Z,100959.82
2018-07-05T11:22:06.387Z,100964.89
2018-07-05T11:25:27.670Z,100958.86
2018-07-05T11:28:48.964Z,100965.20
2018-07-05T11:32:10.501Z,100964.61
2018-07-05T11:35:31.870Z,100961.66
2018-07-05T11:38:53.345Z,100955.17
2018-07-05T11:42:14.622Z,100973.82
2018-07-05T11:45:36.181Z,100965.63
2018-07-05T11:48:57.685Z,100973.55
2018-07-05T11:52:19.101Z,100974.27
2018-07-05T11:55:40.657Z,100972.39
2018-07-05T11:59:02.018Z,100970.91
2018-07-05T12:02:23.613Z,100968.08
2018-07-05T12:05:44.850Z,100979.98
2018-07-05T12:09:07.696Z,100973.03
2018-07-05T12:12:29.338Z,100970.66
2018-07-05T12:15:51.065Z,100967.83
2018-07-05T12:19:12.357Z,100961.12
2018-07-05T12:22:33.903Z,100958.13
2018-07-05T12:25:55.356Z,100968.69
2018-07-05T12:29:16.795Z,100964.70
2018-07-05T12:32:38.140Z,100958.67
2018-07-05T12:35:59.602Z,100966.52
2018-07-05T12:39:21.104Z,100963.44
2018-07-05T12:42:42.497Z,100958.78
2018-07-05T12:46:03.921Z,100961.75
2018-07-05T12:49:25.371Z,100954.45
2018-07-05T12:52:46.780Z,100952.94
2018-07-05T12:56:08.134Z,100948.89
2018-07-05T12:59:29.417Z,100966.45
2018-07-05T13:02:50.691Z,100971.87
2018-07-05T13:06:12.140Z,100967.46
2018-07-05T13:09:33.598Z,100967.46
2018-07-05T13:12:55.113Z,100978.10
2018-07-05T13:16:16.480Z,100978.81
2018-07-05T13:19:37.879Z,100991.59
2018-07-05T13:22:59.445Z,100984.03
2018-07-05T13:26:21.030Z,100988.36
2018-07-05T13:29:42.438Z,100983.59
2018-07-05T13:33:04.005Z,100980.50
2018-07-05T13:36:25.542Z,100975.09
2018-07-05T13:39:46.771Z,100981.19
2018-07-05T13:43:08.342Z,100983.02
2018-07-05T13:46:29.807Z,100980.32
2018-07-05T13:49:51.233Z,100975.36
2018-07-05T13:53:12.546Z,100981.03
2018-07-05T13:56:33.950Z,100977.86
2018-07-05T13:59:55.411Z,100979.67
2018-07-05T14:03:16.847Z,100980.13
2018-07-05T14:06:38.930Z,100974.00
2018-07-05T14:10:00.499Z,100976.68
2018-07-05T14:13:21.929Z,100975.47
2018-07-05T14:16:43.284Z,100968.93
2018-07-05T14:20:04.686Z,100974.05
2018-07-05T14:23:26.152Z,100973.55
2018-07-05T14:26:47.704Z,100970.80
2018-07-05T14:30:08.984Z,100964.85
2018-07-05T14:33:30.398Z,100966.50
2018-07-05T14:36:51.775Z,100968.00
2018-07-05T14:40:13.300Z,100974.15
2018-07-05T14:43:34.826Z,100976.13
2018-07-05T14:46:56.494Z,100974.66
2018-07-05T14:50:17.827Z,100981.64
2018-07-05T14:53:39.380Z,100976.50
2018-07-05T14:57:00.761Z,100972.92
2018-07-05T15:00:22.325Z,100972.94
2018-07-05T15:03:43.709Z,100966.55
2018-07-05T15:07:05.352Z,100970.45
2018-07-05T15:10:26.806Z,100970.27
2018-07-05T15:13:49.038Z,100974.80
2018-07-05T15:17:10.571Z,100988.88
2018-07-05T15:20:31.950Z,100988.10
2018-07-05T15:23:53.301Z,100994.38
2018-07-05T15:27:14.749Z,100988.17
2018-07-05T15:30:36.037Z,100999.56
2018-07-05T15:33:57.496Z,100990.05
2018-07-05T15:37:18.840Z,100986.70
2018-07-05T15:40:40.334Z,100990.70
2018-07-05T15:44:01.841Z,100986.22
2018-07-05T15:47:23.433Z,100986.03
2018-07-05T15:50:44.963Z,100982.98
2018-07-05T15:54:06.570Z,100987.05
2018-07-05T15:57:27.958Z,100981.86
2018-07-05T16:00:49.471Z,100982.30
2018-07-05T16:04:11.053Z,100981.02
2018-07-05T16:07:32.538Z,100985.77
2018-07-05T16:10:53.993Z,100991.25
2018-07-05T16:14:15.328Z,100988.62
2018-07-05T16:17:36.902Z,100999.63
2018-07-05T16:20:58.573Z,100990.88
2018-07-05T16:24:19.961Z,100995.33
2018-07-05T16:27:41.364Z,100997.06
2018-07-05T16:31:02.884Z,100993.17
2018-07-05T16:34:24.422Z,101001.57
2018-07-05T16:37:45.979Z,100999.42
2018-07-05T16:41:07.385Z,100991.48
2018-07-05T16:44:28.760Z,100994.04
2018-07-05T16:47:50.212Z,100999.69
2018-07-05T16:51:11.750Z,100993.22
2018-07-05T16:54:33.071Z,101001.23
2018-07-05T16:57:54.421Z,101003.88
2018-07-05T17:01:16.037Z,100998.61
2018-07-05T17:04:37.571Z,100994.25
2018-07-05T17:07:59.187Z,100991.09
2018-07-05T17:11:20.757Z,100992.35
2018-07-05T17:14:42.179Z,100984.10
2018-07-05T17:18:03.585Z,100987.97
2018-07-05T17:21:24.939Z,100985.77
2018-07-05T17:24:46.348Z,100981.34
2018-07-05T17:28:07.782Z,100985.70
2018-07-05T17:31:29.310Z,100978.30
2018-07-05T17:34:50.741Z,100973.91
2018-07-05T17:38:12.132Z,100981.30
2018-07-05T17:41:33.513Z,100977.78
2018-07-05T17:44:55.144Z,100984.39
2018-07-05T17:48:16.544Z,100984.48
2018-07-05T17:51:38.098Z,100978.94
2018-07-05T17:54:59.416Z,100989.09
2018-07-05T17:58:20.940Z,100988.23
2018-07-05T18:01:42.445Z,100993.48
2018-07-05T18:05:03.801Z,100999.63
2018-07-05T18:08:25.081Z,101002.73
2018-07-05T18:11:46.553Z,100995.33
2018-07-05T18:15:07.919Z,100999.27
2018-07-05T18:18:29.214Z,101003.69
2018-07-05T18:21:50.581Z,100998.41
2018-07-05T18:25:12.053Z,101006.31
2018-07-05T18:28:33.354Z,101009.80
2018-07-05T18:31:54.883Z,101009.80
2018-07-05T18:35:16.431Z,101008.08
2018-07-05T18:38:31.787Z,101005.89
2018-07-05T18:41:53.176Z,101008.07
2018-07-05T18:45:14.400Z,101004.58
2018-07-05T18:48:35.922Z,101007.20
2018-07-05T18:51:57.411Z,101007.64
2018-07-05T18:55:18.937Z,101007.20
2018-07-05T18:58:40.427Z,101003.70
2018-07-05T19:02:01.968Z,101005.46
2018-07-05T19:05:23.421Z,101015.52
2018-07-05T19:08:45.167Z,101013.31
2018-07-05T19:12:06.731Z,101012.44
2018-07-05T19:15:28.207Z,101020.31
2018-07-05T19:18:49.576Z,101016.80
2018-07-05T19:22:10.874Z,101016.37
2018-07-05T19:25:32.464Z,101020.76
2018-07-05T19:28:54.139Z,101015.09
2018-07-05T19:32:15.499Z,101022.06
2018-07-05T19:35:37.082Z,101018.12
2018-07-05T19:38:58.424Z,101021.19
2018-07-05T19:42:19.970Z,101024.25
2018-07-05T19:45:41.556Z,101025.98
2018-07-05T19:49:02.912Z,101027.30
2018-07-05T19:52:24.205Z,101025.11
2018-07-05T19:55:45.466Z,101030.78
2018-07-05T19:59:06.918Z,101029.48
2018-07-05T20:02:28.688Z,101029.03
2018-07-05T20:05:50.087Z,101027.30
2018-07-05T20:09:11.563Z,101027.75
2018-07-05T20:12:32.844Z,101029.48
2018-07-05T20:15:54.269Z,101031.23
2018-07-05T20:19:15.841Z,101045.20
2018-07-05T20:22:37.573Z,101033.40
2018-07-05T20:25:59.009Z,101036.45
2018-07-05T20:29:20.520Z,101035.17
2018-07-05T20:32:42.095Z,101042.59
2018-07-05T20:36:04.314Z,101043.03
2018-07-05T20:39:25.834Z,101042.56
2018-07-05T20:42:47.341Z,101047.83
2018-07-05T20:46:08.777Z,101050.00
2018-07-05T20:49:30.419Z,101049.98
2018-07-05T20:52:51.813Z,101050.01
2018-07-05T20:56:13.410Z,101055.23
2018-07-05T20:59:35.175Z,101059.17
2018-07-05T21:02:56.728Z,101053.94
2018-07-05T21:06:18.627Z,101046.05
2018-07-05T21:09:41.203Z,101060.45
2018-07-05T21:13:03.002Z,101057.84
2018-07-05T21:16:24.503Z,101056.55
2018-07-05T21:19:40.075Z,101062.22
2018-07-05T21:23:02.636Z,101065.73
2018-07-05T21:26:24.367Z,101061.38
2018-07-05T21:29:46.364Z,101062.22
2018-07-05T21:33:07.922Z,101059.60
2018-07-05T21:36:29.348Z,101064.84
2018-07-05T21:39:50.839Z,101068.31
2018-07-05T21:43:12.223Z,101058.72
2018-07-05T21:46:33.746Z,101056.50
2018-07-05T21:49:55.278Z,101061.30
2018-07-05T21:53:16.759Z,101063.03
2018-07-05T21:56:37.989Z,101064.35
2018-07-05T21:59:59.259Z,101067.02
2018-07-05T22:03:20.792Z,101070.94
2018-07-05T22:06:42.297Z,101069.59
2018-07-05T22:10:03.670Z,101066.52
2018-07-05T22:13:24.965Z,101063.52
2018-07-05T22:16:51.785Z,101062.19
2018-07-05T22:20:18.644Z,101067.89
2018-07-05T22:23:45.531Z,101067.87
2018-07-05T22:27:10.300Z,101064.83
2018-07-05T22:30:37.195Z,101067.83
2018-07-05T22:33:58.717Z,101066.05
2018-07-05T22:37:20.316Z,101067.36
2018-07-05T22:40:41.780Z,101069.56
2018-07-05T22:44:03.386Z,101070.84
2018-07-05T22:47:24.721Z,101070.44
2018-07-05T22:50:46.107Z,101072.60
2018-07-05T22:54:07.311Z,101071.73
2018-07-05T22:57:28.788Z,101062.96
2018-07-05T23:00:50.041Z,101064.27
2018-07-05T23:04:05.321Z,101067.31
2018-07-05T23:07:26.949Z,101066.91
2018-07-05T23:10:48.603Z,101064.30
2018-07-05T23:14:10.150Z,101062.12
2018-07-05T23:17:31.606Z,101060.34
2018-07-05T23:20:52.993Z,101063.41
2018-07-05T23:24:14.473Z,101070.80
2018-07-05T23:27:35.925Z,101063.39
2018-07-05T23:30:57.402Z,101066.00
2018-07-05T23:34:18.867Z,101062.55
2018-07-05T23:37:40.239Z,101060.81
2018-07-05T23:41:01.654Z,101055.95
2018-07-05T23:44:23.350Z,101060.77
2018-07-05T23:47:45.050Z,101053.35
2018-07-05T23:51:06.561Z,101054.22
2018-07-05T23:54:28.102Z,101054.66
2018-07-05T23:57:49.865Z,101051.18
